Time;durP1;ratioP1;P1;durP2;ratioP2;P2;SDS_P1;SDS_P2;PMS_P1;PMS_P2;Temp;Humidity;BMP_temperature;BMP_pressure;BME280_temperature;BME280_humidity;BME280_pressure;Samples;Min_cycle;Max_cycle;Signal;HPM_P1;HPM_P2
2023/01/07 00:01:32;;;;;;;15.02;8.25;;;;;;;;;;5102036;28;20028;-81
2023/01/07 00:03:58;;;;;;;12.48;7.68;;;;;;;;;;5121531;28;20043;-81
2023/01/07 00:06:26;;;;;;;14.93;8.77;;;;;;;;;;5120358;28;20032;-81
2023/01/07 00:08:53;;;;;;;12.65;7.93;;;;;;;;;;5119364;28;20322;-81
2023/01/07 00:11:30;;;;;;;12.52;7.60;;;;;;;;;;5120750;28;20049;-81
2023/01/07 00:13:56;;;;;;;15.35;9.07;;;;;;;;;;5112361;28;20020;-82
2023/01/07 00:16:23;;;;;;;12.25;7.95;;;;;;;;;;5102787;28;20470;-82
2023/01/07 00:18:53;;;;;;;13.55;8.35;;;;;;;;;;5121248;28;20026;-81
2023/01/07 00:21:19;;;;;;;16.02;10.02;;;;;;;;;;5119591;28;20020;-81
2023/01/07 00:23:46;;;;;;;16.00;8.75;;;;;;;;;;5121178;28;20024;-81
2023/01/07 00:26:13;;;;;;;13.23;7.90;;;;;;;;;;5120812;28;20032;-82
2023/01/07 00:28:40;;;;;;;16.55;8.65;;;;;;;;;;5113969;28;20032;-81
2023/01/07 00:31:09;;;;;;;12.30;7.57;;;;;;;;;;5110971;28;20023;-81
2023/01/07 00:33:35;;;;;;;12.85;8.43;;;;;;;;;;5120422;28;20099;-82
2023/01/07 00:36:08;;;;;;;13.65;7.85;;;;;;;;;;5118380;28;20031;-81
2023/01/07 00:38:34;;;;;;;11.73;7.75;;;;;;;;;;5118775;28;20032;-82
2023/01/07 00:41:00;;;;;;;14.98;8.55;;;;;;;;;;5119569;28;20043;-81
2023/01/07 00:43:26;;;;;;;14.10;8.27;;;;;;;;;;5114643;28;20061;-82
2023/01/07 00:45:53;;;;;;;14.77;8.68;;;;;;;;;;5119417;28;20068;-81
2023/01/07 00:48:20;;;;;;;13.00;8.23;;;;;;;;;;5116799;28;20118;-82
2023/01/07 00:50:47;;;;;;;15.35;8.80;;;;;;;;;;5099110;28;20027;-81
2023/01/07 00:53:13;;;;;;;14.85;8.68;;;;;;;;;;5099667;28;20334;-82
2023/01/07 00:55:39;;;;;;;13.68;8.40;;;;;;;;;;5098595;28;20115;-81
2023/01/07 00:58:06;;;;;;;13.82;8.68;;;;;;;;;;5098935;28;20496;-82
2023/01/07 01:00:32;;;;;;;13.73;8.38;;;;;;;;;;5099570;28;20085;-82
2023/01/07 01:02:58;;;;;;;14.93;9.00;;;;;;;;;;5108468;28;20101;-81
2023/01/07 01:05:24;;;;;;;13.48;8.93;;;;;;;;;;5109856;28;20584;-81
2023/01/07 01:07:50;;;;;;;14.02;8.63;;;;;;;;;;5116550;28;20036;-81
2023/01/07 01:10:17;;;;;;;13.23;8.65;;;;;;;;;;5096976;28;20482;-82
2023/01/07 01:12:43;;;;;;;13.05;8.80;;;;;;;;;;5113608;28;20018;-82
2023/01/07 01:15:12;;;;;;;15.02;7.90;;;;;;;;;;5119628;28;20085;-82
2023/01/07 01:17:38;;;;;;;16.38;8.90;;;;;;;;;;5118634;28;20051;-82
2023/01/07 01:20:05;;;;;;;14.93;9.02;;;;;;;;;;5106260;28;20474;-82
2023/01/07 01:22:31;;;;;;;13.00;7.13;;;;;;;;;;5098856;28;20473;-82
2023/01/07 01:24:57;;;;;;;12.95;8.65;;;;;;;;;;5098434;28;20024;-80
2023/01/07 01:27:23;;;;;;;13.10;7.72;;;;;;;;;;5099036;28;20493;-82
2023/01/07 01:29:49;;;;;;;14.73;8.68;;;;;;;;;;5107236;28;20035;-82
2023/01/07 01:32:15;;;;;;;13.65;8.90;;;;;;;;;;5117652;28;20492;-82
2023/01/07 01:34:41;;;;;;;14.20;8.63;;;;;;;;;;5118776;28;20020;-81
2023/01/07 01:37:07;;;;;;;15.65;9.35;;;;;;;;;;5118966;28;20027;-81
2023/01/07 01:39:33;;;;;;;13.55;8.73;;;;;;;;;;5107605;28;20039;-82
2023/01/07 01:41:59;;;;;;;16.30;10.05;;;;;;;;;;5098568;28;20102;-82
2023/01/07 01:44:36;;;;;;;14.82;9.57;;;;;;;;;;5098747;28;20044;-82
2023/01/07 01:47:14;;;;;;;15.40;10.40;;;;;;;;;;5098165;28;20110;-81
2023/01/07 01:49:42;;;;;;;14.43;8.85;;;;;;;;;;5107473;28;20035;-81
2023/01/07 01:52:11;;;;;;;16.08;9.45;;;;;;;;;;5119033;28;20054;-82
2023/01/07 01:54:39;;;;;;;16.35;10.32;;;;;;;;;;5127829;28;20027;-81
2023/01/07 01:57:06;;;;;;;19.20;10.32;;;;;;;;;;5103686;28;20059;-81
2023/01/07 01:59:34;;;;;;;16.75;9.93;;;;;;;;;;5119504;28;20027;-81
2023/01/07 02:02:00;;;;;;;14.65;9.23;;;;;;;;;;5119064;28;20027;-82
2023/01/07 02:04:27;;;;;;;17.23;9.27;;;;;;;;;;5116685;28;20023;-81
2023/01/07 02:07:25;;;;;;;12.32;8.05;;;;;;;;;;5113570;28;20072;-81
2023/01/07 02:10:08;;;;;;;11.52;7.13;;;;;;;;;;5055472;28;20045;-82
2023/01/07 02:12:45;;;;;;;15.48;7.55;;;;;;;;;;5055198;28;20041;-81
2023/01/07 02:15:15;;;;;;;13.82;7.13;;;;;;;;;;5038852;28;20419;-82
2023/01/07 02:17:44;;;;;;;10.32;6.75;;;;;;;;;;5048784;28;20028;-81
2023/01/07 02:20:28;;;;;;;10.93;6.70;;;;;;;;;;5075648;28;20092;-81
2023/01/07 02:23:09;;;;;;;11.85;7.28;;;;;;;;;;5076199;28;20047;-81
2023/01/07 02:25:54;;;;;;;11.07;5.95;;;;;;;;;;5062064;28;20045;-82
2023/01/07 02:28:50;;;;;;;11.93;7.32;;;;;;;;;;5070407;28;20039;-82
2023/01/07 02:31:42;;;;;;;11.40;6.68;;;;;;;;;;5058371;28;20027;-82
2023/01/07 02:34:14;;;;;;;9.80;5.97;;;;;;;;;;5074677;28;20052;-82
2023/01/07 02:36:40;;;;;;;10.07;5.50;;;;;;;;;;5073661;28;20513;-82
2023/01/07 02:39:06;;;;;;;11.07;5.75;;;;;;;;;;5056294;28;20037;-81
2023/01/07 02:41:33;;;;;;;10.40;5.70;;;;;;;;;;5038516;28;20510;-81
2023/01/07 02:43:59;;;;;;;8.55;5.38;;;;;;;;;;5054528;28;20419;-80
2023/01/07 02:46:30;;;;;;;10.27;5.93;;;;;;;;;;5092730;28;20048;-81
2023/01/07 02:49:08;;;;;;;9.50;5.28;;;;;;;;;;5115525;28;20474;-82
2023/01/07 02:51:35;;;;;;;9.13;4.50;;;;;;;;;;5117479;28;20069;-81
2023/01/07 02:54:01;;;;;;;9.55;5.38;;;;;;;;;;5097529;28;20020;-81
2023/01/07 02:56:58;;;;;;;8.68;5.13;;;;;;;;;;5097106;28;20028;-80
2023/01/07 02:59:40;;;;;;;8.32;4.82;;;;;;;;;;5063095;28;20033;-81
2023/01/07 03:02:07;;;;;;;9.25;5.25;;;;;;;;;;5117472;28;20035;-79
2023/01/07 03:04:42;;;;;;;9.90;5.80;;;;;;;;;;5106846;28;20028;-81
2023/01/07 03:07:18;;;;;;;10.20;5.32;;;;;;;;;;5103147;28;20030;-80
2023/01/07 03:10:07;;;;;;;9.65;5.55;;;;;;;;;;5117153;28;20072;-81
2023/01/07 03:12:36;;;;;;;8.95;4.97;;;;;;;;;;5085670;28;20036;-80
2023/01/07 03:15:07;;;;;;;9.57;5.90;;;;;;;;;;5113467;28;20029;-80
2023/01/07 03:17:44;;;;;;;10.23;5.57;;;;;;;;;;5119681;28;20028;-81
2023/01/07 03:20:11;;;;;;;9.75;5.78;;;;;;;;;;5119582;28;20027;-81
2023/01/07 03:22:38;;;;;;;9.25;5.30;;;;;;;;;;5106561;28;20131;-81
2023/01/07 03:25:05;;;;;;;9.05;5.15;;;;;;;;;;5100606;28;20334;-81
2023/01/07 03:27:33;;;;;;;9.35;5.13;;;;;;;;;;5098916;28;20027;-81
2023/01/07 03:30:02;;;;;;;8.95;5.03;;;;;;;;;;5100821;28;20078;-81
2023/01/07 03:32:48;;;;;;;8.18;4.60;;;;;;;;;;5114617;28;20020;-81
2023/01/07 03:35:15;;;;;;;8.73;4.72;;;;;;;;;;5119188;28;20027;-81
2023/01/07 03:37:41;;;;;;;9.90;5.15;;;;;;;;;;5115410;28;20023;-81
2023/01/07 03:40:09;;;;;;;7.63;4.63;;;;;;;;;;5120696;28;20039;-81
2023/01/07 03:42:38;;;;;;;7.55;4.63;;;;;;;;;;5119289;27;20026;-81
2023/01/07 03:45:05;;;;;;;9.45;5.25;;;;;;;;;;5104867;28;20071;-81
2023/01/07 03:47:31;;;;;;;8.93;4.88;;;;;;;;;;5120950;28;20066;-81
2023/01/07 03:49:57;;;;;;;8.80;5.22;;;;;;;;;;5113158;28;20035;-81
2023/01/07 03:52:23;;;;;;;9.13;5.45;;;;;;;;;;5101389;28;20056;-81
2023/01/07 03:54:49;;;;;;;8.20;5.03;;;;;;;;;;5127546;28;20079;-80
2023/01/07 03:57:17;;;;;;;8.63;5.05;;;;;;;;;;5124286;28;20080;-81
2023/01/07 03:59:43;;;;;;;8.55;5.15;;;;;;;;;;5121666;28;20051;-81
2023/01/07 04:02:09;;;;;;;7.45;4.22;;;;;;;;;;5114262;28;20020;-80
2023/01/07 04:04:35;;;;;;;7.38;4.22;;;;;;;;;;5101433;28;20028;-81
2023/01/07 04:07:01;;;;;;;8.00;4.78;;;;;;;;;;5100378;28;20444;-81
2023/01/07 04:09:27;;;;;;;8.18;4.90;;;;;;;;;;5099587;28;20077;-80
2023/01/07 04:11:53;;;;;;;8.70;4.80;;;;;;;;;;5102328;28;20065;-80
2023/01/07 04:14:19;;;;;;;9.38;4.43;;;;;;;;;;5118574;28;20027;-81
2023/01/07 04:16:45;;;;;;;7.90;4.30;;;;;;;;;;5119340;28;20012;-81
2023/01/07 04:19:11;;;;;;;8.35;5.07;;;;;;;;;;5114154;28;20625;-81
2023/01/07 04:21:37;;;;;;;8.40;4.57;;;;;;;;;;5101980;28;20105;-81
2023/01/07 04:24:03;;;;;;;7.55;4.38;;;;;;;;;;5118881;28;20057;-80
2023/01/07 04:26:31;;;;;;;7.18;4.18;;;;;;;;;;5119952;28;20019;-81
2023/01/07 04:28:57;;;;;;;7.60;4.22;;;;;;;;;;5119640;28;20020;-81
2023/01/07 04:31:23;;;;;;;7.82;4.03;;;;;;;;;;5120094;28;20024;-81
2023/01/07 04:33:49;;;;;;;7.68;4.13;;;;;;;;;;5112553;28;20032;-80
2023/01/07 04:36:15;;;;;;;7.93;4.95;;;;;;;;;;5099913;28;20036;-81
2023/01/07 04:38:41;;;;;;;8.27;5.10;;;;;;;;;;5099650;28;20024;-81
2023/01/07 04:41:07;;;;;;;8.73;5.70;;;;;;;;;;5100008;28;20028;-80
2023/01/07 04:43:34;;;;;;;12.55;7.10;;;;;;;;;;5118995;28;20114;-81
2023/01/07 04:46:00;;;;;;;9.73;6.30;;;;;;;;;;5119882;28;20083;-80
2023/01/07 04:48:26;;;;;;;9.88;4.88;;;;;;;;;;5114692;28;20101;-81
2023/01/07 04:50:52;;;;;;;9.10;4.30;;;;;;;;;;5099620;28;20058;-81
2023/01/07 04:53:18;;;;;;;9.90;4.60;;;;;;;;;;5115635;28;20106;-81
2023/01/07 04:55:44;;;;;;;7.35;3.92;;;;;;;;;;5119103;28;20028;-81
2023/01/07 04:58:10;;;;;;;7.28;4.07;;;;;;;;;;5119493;28;20034;-81
2023/01/07 05:00:35;;;;;;;6.72;4.13;;;;;;;;;;5120083;28;20481;-81
2023/01/07 05:03:01;;;;;;;7.22;4.15;;;;;;;;;;5118595;28;20024;-81
2023/01/07 05:05:29;;;;;;;7.40;4.40;;;;;;;;;;5120163;28;20523;-80
2023/01/07 05:07:55;;;;;;;7.35;4.07;;;;;;;;;;5119395;28;20392;-80
2023/01/07 05:10:21;;;;;;;7.80;4.18;;;;;;;;;;5118214;28;20015;-81
2023/01/07 05:12:47;;;;;;;9.20;5.78;;;;;;;;;;5103074;28;20409;-81
2023/01/07 05:15:13;;;;;;;8.88;5.85;;;;;;;;;;5105445;28;20026;-80
2023/01/07 05:17:39;;;;;;;17.70;11.95;;;;;;;;;;5102031;28;20024;-81
2023/01/07 05:20:07;;;;;;;17.77;10.48;;;;;;;;;;5098423;28;20051;-80
2023/01/07 05:22:33;;;;;;;15.13;9.98;;;;;;;;;;5103448;28;20032;-81
2023/01/07 05:24:59;;;;;;;8.93;6.13;;;;;;;;;;5098780;28;20039;-81
2023/01/07 05:27:25;;;;;;;7.03;3.92;;;;;;;;;;5098205;28;20028;-81
2023/01/07 05:29:51;;;;;;;8.43;4.65;;;;;;;;;;5098484;28;20032;-81
2023/01/07 05:32:17;;;;;;;6.68;3.72;;;;;;;;;;5098895;28;20020;-81
2023/01/07 05:34:43;;;;;;;7.72;4.30;;;;;;;;;;5099744;28;20070;-81
2023/01/07 05:37:09;;;;;;;8.05;4.22;;;;;;;;;;5101415;28;20046;-81
2023/01/07 05:39:34;;;;;;;8.27;4.18;;;;;;;;;;5118221;28;20028;-81
2023/01/07 05:42:00;;;;;;;7.82;4.53;;;;;;;;;;5115819;28;20375;-81
2023/01/07 05:44:26;;;;;;;6.05;3.72;;;;;;;;;;5097984;28;20151;-80
2023/01/07 05:46:52;;;;;;;8.23;4.30;;;;;;;;;;5100485;28;20107;-81
2023/01/07 05:49:18;;;;;;;8.32;4.97;;;;;;;;;;5098779;28;20030;-81
2023/01/07 05:51:44;;;;;;;8.20;4.40;;;;;;;;;;5101053;28;20024;-80
2023/01/07 05:54:10;;;;;;;6.97;4.05;;;;;;;;;;5108743;28;20032;-81
2023/01/07 05:56:36;;;;;;;7.32;4.20;;;;;;;;;;5101690;28;20020;-81
2023/01/07 05:59:02;;;;;;;8.50;4.80;;;;;;;;;;5119747;28;20053;-81
2023/01/07 06:01:28;;;;;;;8.80;5.20;;;;;;;;;;5116981;28;20534;-81
2023/01/07 06:03:54;;;;;;;8.10;4.40;;;;;;;;;;5098219;28;20118;-81
2023/01/07 06:06:20;;;;;;;9.95;5.68;;;;;;;;;;5097760;28;20086;-81
2023/01/07 06:08:49;;;;;;;7.97;5.35;;;;;;;;;;5097177;28;20027;-80
2023/01/07 06:11:15;;;;;;;9.57;5.25;;;;;;;;;;5096801;28;20028;-81
2023/01/07 06:13:41;;;;;;;8.88;4.93;;;;;;;;;;5116653;28;20434;-81
2023/01/07 06:16:08;;;;;;;10.18;4.90;;;;;;;;;;5103754;28;20024;-81
2023/01/07 06:18:34;;;;;;;8.82;4.57;;;;;;;;;;5097305;28;20027;-81
2023/01/07 06:21:00;;;;;;;8.65;4.57;;;;;;;;;;5098228;28;20112;-81
2023/01/07 06:23:26;;;;;;;7.10;4.32;;;;;;;;;;5115082;28;20031;-81
2023/01/07 06:25:52;;;;;;;10.50;6.28;;;;;;;;;;5098528;28;20461;-81
2023/01/07 06:28:18;;;;;;;9.32;5.78;;;;;;;;;;5097476;28;20150;-80
2023/01/07 06:30:45;;;;;;;11.02;7.57;;;;;;;;;;5097782;28;20101;-81
2023/01/07 06:33:11;;;;;;;11.85;7.75;;;;;;;;;;5112328;28;20055;-81
2023/01/07 06:35:37;;;;;;;11.45;6.38;;;;;;;;;;5117933;28;20026;-81
2023/01/07 06:38:03;;;;;;;10.65;6.38;;;;;;;;;;5110054;28;20058;-80
2023/01/07 06:40:29;;;;;;;12.40;7.43;;;;;;;;;;5105009;28;20024;-80
2023/01/07 06:42:55;;;;;;;15.05;8.90;;;;;;;;;;5103430;28;20047;-80
2023/01/07 06:45:22;;;;;;;14.68;8.68;;;;;;;;;;5096971;28;20016;-81
2023/01/07 06:47:48;;;;;;;12.15;8.00;;;;;;;;;;5097787;28;20054;-81
2023/01/07 06:50:14;;;;;;;14.05;8.63;;;;;;;;;;5098300;28;20044;-81
2023/01/07 06:52:40;;;;;;;15.75;9.80;;;;;;;;;;5114762;28;20023;-81
2023/01/07 06:55:06;;;;;;;12.07;8.55;;;;;;;;;;5124825;28;20095;-81
2023/01/07 06:57:32;;;;;;;12.95;8.30;;;;;;;;;;5124160;28;20454;-81
2023/01/07 06:59:58;;;;;;;13.93;8.35;;;;;;;;;;5123224;28;20023;-81
2023/01/07 07:02:26;;;;;;;12.20;7.93;;;;;;;;;;5121908;28;20026;-80
2023/01/07 07:04:52;;;;;;;12.13;8.00;;;;;;;;;;5122749;28;20461;-81
2023/01/07 07:07:18;;;;;;;14.75;9.52;;;;;;;;;;5123947;28;20474;-81
2023/01/07 07:09:44;;;;;;;14.77;8.50;;;;;;;;;;5112559;28;20500;-81
2023/01/07 07:12:10;;;;;;;18.30;10.55;;;;;;;;;;5111710;28;20023;-80
2023/01/07 07:14:36;;;;;;;18.33;10.88;;;;;;;;;;5104725;28;20088;-81
2023/01/07 07:17:03;;;;;;;19.52;10.45;;;;;;;;;;5104508;28;20012;-81
2023/01/07 07:19:29;;;;;;;14.60;10.10;;;;;;;;;;5104100;28;20028;-81
2023/01/07 07:21:55;;;;;;;15.90;9.60;;;;;;;;;;5111501;28;20040;-81
2023/01/07 07:24:21;;;;;;;16.90;10.48;;;;;;;;;;5113403;28;20490;-80
2023/01/07 07:26:47;;;;;;;17.17;10.35;;;;;;;;;;5102701;28;20123;-81
2023/01/07 07:29:13;;;;;;;16.15;10.07;;;;;;;;;;5102554;28;20028;-81
2023/01/07 07:31:39;;;;;;;18.40;10.70;;;;;;;;;;5110564;28;20031;-80
2023/01/07 07:34:07;;;;;;;16.45;10.80;;;;;;;;;;5124201;28;20026;-81
2023/01/07 07:36:33;;;;;;;14.95;10.02;;;;;;;;;;5123792;27;20020;-81
2023/01/07 07:38:59;;;;;;;15.93;9.93;;;;;;;;;;5112769;28;20038;-81
2023/01/07 07:41:25;;;;;;;13.93;9.43;;;;;;;;;;5108724;28;20560;-81
2023/01/07 07:43:51;;;;;;;11.68;8.07;;;;;;;;;;5123380;28;20334;-80
2023/01/07 07:46:17;;;;;;;11.85;8.13;;;;;;;;;;5124013;28;20034;-81
2023/01/07 07:48:43;;;;;;;11.57;7.05;;;;;;;;;;5123711;28;20034;-81
2023/01/07 07:51:09;;;;;;;11.68;7.18;;;;;;;;;;5122624;27;20077;-80
2023/01/07 07:53:35;;;;;;;10.57;7.30;;;;;;;;;;5115697;28;20020;-81
2023/01/07 07:56:01;;;;;;;12.98;7.63;;;;;;;;;;5106004;28;20492;-81
2023/01/07 07:58:27;;;;;;;11.25;6.88;;;;;;;;;;5103857;28;20036;-80
2023/01/07 08:00:53;;;;;;;14.93;7.97;;;;;;;;;;5102688;28;20016;-81
2023/01/07 08:03:19;;;;;;;11.15;7.32;;;;;;;;;;5100997;28;20089;-81
2023/01/07 08:05:45;;;;;;;11.20;7.07;;;;;;;;;;5100220;28;20073;-80
2023/01/07 08:08:15;;;;;;;11.02;7.10;;;;;;;;;;5114388;28;20035;-81
2023/01/07 08:10:41;;;;;;;12.52;6.68;;;;;;;;;;5111491;28;20024;-79
2023/01/07 08:13:08;;;;;;;12.38;7.30;;;;;;;;;;5099717;28;20016;-81
2023/01/07 08:15:34;;;;;;;12.85;7.88;;;;;;;;;;5100144;28;20019;-81
2023/01/07 08:18:03;;;;;;;12.55;7.18;;;;;;;;;;5113081;28;20080;-81
2023/01/07 08:20:29;;;;;;;11.27;6.47;;;;;;;;;;5118871;28;20023;-80
2023/01/07 08:22:59;;;;;;;11.70;7.03;;;;;;;;;;5107477;28;20045;-79
2023/01/07 08:25:25;;;;;;;12.05;6.97;;;;;;;;;;5099974;28;20016;-81
2023/01/07 08:27:50;;;;;;;10.05;6.07;;;;;;;;;;5117772;28;20031;-81
2023/01/07 08:30:17;;;;;;;10.77;6.47;;;;;;;;;;5119901;28;20438;-81
2023/01/07 08:32:43;;;;;;;12.07;7.25;;;;;;;;;;5120746;28;20020;-81
2023/01/07 08:35:09;;;;;;;10.00;6.88;;;;;;;;;;5120223;28;20036;-81
2023/01/07 08:37:35;;;;;;;10.98;6.20;;;;;;;;;;5131203;27;20444;-80
2023/01/07 08:40:02;;;;;;;8.65;5.80;;;;;;;;;;5116127;27;20050;-81
2023/01/07 08:42:29;;;;;;;9.60;5.90;;;;;;;;;;5099713;28;20046;-80
2023/01/07 08:44:55;;;;;;;8.95;5.88;;;;;;;;;;5099154;28;20051;-81
2023/01/07 08:47:21;;;;;;;9.50;5.53;;;;;;;;;;5099329;28;20112;-81
2023/01/07 08:49:47;;;;;;;9.52;6.07;;;;;;;;;;5099670;28;20052;-81
2023/01/07 08:52:13;;;;;;;8.82;5.63;;;;;;;;;;5104677;28;20111;-80
2023/01/07 08:54:39;;;;;;;8.20;5.22;;;;;;;;;;5099435;28;20431;-80
2023/01/07 08:57:05;;;;;;;8.68;5.72;;;;;;;;;;5099417;28;20035;-80
2023/01/07 08:59:31;;;;;;;9.02;5.82;;;;;;;;;;5097986;28;20017;-80
2023/01/07 09:01:57;;;;;;;9.68;5.65;;;;;;;;;;5112137;28;20102;-80
2023/01/07 09:04:23;;;;;;;9.25;5.95;;;;;;;;;;5115470;28;20449;-80
2023/01/07 09:06:49;;;;;;;9.07;5.30;;;;;;;;;;5098823;28;20030;-80
2023/01/07 09:09:15;;;;;;;8.43;5.00;;;;;;;;;;5098560;28;20387;-80
2023/01/07 09:11:41;;;;;;;8.82;4.78;;;;;;;;;;5110067;28;20024;-80
2023/01/07 09:14:08;;;;;;;8.00;4.80;;;;;;;;;;5118377;28;20504;-80
2023/01/07 09:16:34;;;;;;;8.57;5.05;;;;;;;;;;5118721;28;20027;-79
2023/01/07 09:18:59;;;;;;;6.60;3.90;;;;;;;;;;5117489;28;20164;-80
2023/01/07 09:21:25;;;;;;;8.23;4.63;;;;;;;;;;5118196;28;20055;-80
2023/01/07 09:23:51;;;;;;;7.68;4.10;;;;;;;;;;5118003;28;20024;-80
2023/01/07 09:26:17;;;;;;;5.63;3.42;;;;;;;;;;5117544;28;20032;-80
2023/01/07 09:28:43;;;;;;;6.38;3.70;;;;;;;;;;5120408;28;20424;-80
2023/01/07 09:31:09;;;;;;;6.90;3.65;;;;;;;;;;5120189;28;20024;-80
2023/01/07 09:33:36;;;;;;;6.78;3.80;;;;;;;;;;5118461;28;20561;-80
2023/01/07 09:36:02;;;;;;;6.68;4.07;;;;;;;;;;5106954;28;20040;-80
2023/01/07 09:38:28;;;;;;;7.38;3.80;;;;;;;;;;5112378;28;20032;-80
2023/01/07 09:40:54;;;;;;;7.60;4.45;;;;;;;;;;5119201;28;20019;-80
2023/01/07 09:43:25;;;;;;;7.07;4.05;;;;;;;;;;5118077;28;20071;-79
2023/01/07 09:45:55;;;;;;;6.90;4.28;;;;;;;;;;5118180;28;20028;-80
2023/01/07 09:48:28;;;;;;;6.30;3.75;;;;;;;;;;5118435;28;20028;-80
2023/01/07 09:51:03;;;;;;;6.45;3.58;;;;;;;;;;5103783;28;20038;-80
2023/01/07 09:53:35;;;;;;;6.28;3.72;;;;;;;;;;5104480;28;20023;-80
2023/01/07 09:56:03;;;;;;;7.45;3.70;;;;;;;;;;5099325;28;20516;-80
2023/01/07 09:58:29;;;;;;;8.38;3.92;;;;;;;;;;5106832;28;20028;-80
2023/01/07 10:01:04;;;;;;;7.22;3.53;;;;;;;;;;5098110;28;20055;-80
2023/01/07 10:03:43;;;;;;;7.72;3.30;;;;;;;;;;5099015;28;20024;-80
2023/01/07 10:06:11;;;;;;;6.32;3.40;;;;;;;;;;5098743;28;20032;-80
2023/01/07 10:08:55;;;;;;;5.85;3.28;;;;;;;;;;5107394;28;20051;-80
2023/01/07 10:11:31;;;;;;;10.00;4.78;;;;;;;;;;5103072;28;20020;-82
2023/01/07 10:14:15;;;;;;;5.40;2.90;;;;;;;;;;5096799;28;20013;-82
2023/01/07 10:16:49;;;;;;;8.10;4.75;;;;;;;;;;5100635;28;20107;-80
2023/01/07 10:19:35;;;;;;;7.18;3.90;;;;;;;;;;5118749;28;20030;-81
2023/01/07 10:22:06;;;;;;;6.78;3.55;;;;;;;;;;5118500;28;20023;-82
2023/01/07 10:24:40;;;;;;;5.35;3.03;;;;;;;;;;5101511;28;20051;-80
2023/01/07 10:27:11;;;;;;;6.10;3.28;;;;;;;;;;5097135;28;20028;-80
2023/01/07 10:29:40;;;;;;;5.45;3.33;;;;;;;;;;5095859;28;20126;-80
2023/01/07 10:32:13;;;;;;;6.68;4.05;;;;;;;;;;5116818;28;20024;-81
2023/01/07 10:34:44;;;;;;;6.68;4.10;;;;;;;;;;5118450;28;20035;-80
2023/01/07 10:37:27;;;;;;;6.53;4.15;;;;;;;;;;5117660;28;20504;-80
2023/01/07 10:39:56;;;;;;;5.70;2.72;;;;;;;;;;5109217;28;20028;-80
2023/01/07 10:42:34;;;;;;;5.13;2.83;;;;;;;;;;5108798;28;20020;-80
2023/01/07 10:45:00;;;;;;;8.23;3.63;;;;;;;;;;5098174;28;20074;-80
2023/01/07 10:47:38;;;;;;;8.27;3.78;;;;;;;;;;5098931;28;20063;-80
2023/01/07 10:50:23;;;;;;;5.03;3.00;;;;;;;;;;5097716;28;20401;-80
2023/01/07 10:53:08;;;;;;;7.57;3.40;;;;;;;;;;5097935;28;20058;-80
2023/01/07 10:55:42;;;;;;;5.90;3.13;;;;;;;;;;5098286;28;20025;-80
2023/01/07 10:58:10;;;;;;;5.43;2.97;;;;;;;;;;5105049;28;20024;-80
2023/01/07 11:00:37;;;;;;;6.28;3.20;;;;;;;;;;5118300;28;20523;-81
2023/01/07 11:03:03;;;;;;;4.60;2.33;;;;;;;;;;5117577;28;20027;-81
2023/01/07 11:05:38;;;;;;;6.03;2.40;;;;;;;;;;5117532;28;20073;-80
2023/01/07 11:08:09;;;;;;;5.57;2.97;;;;;;;;;;5112069;28;20020;-80
2023/01/07 11:10:36;;;;;;;5.45;3.03;;;;;;;;;;5117397;28;20012;-81
2023/01/07 11:13:05;;;;;;;5.30;2.50;;;;;;;;;;5118552;28;20015;-80
2023/01/07 11:15:31;;;;;;;5.47;2.97;;;;;;;;;;5117770;28;20031;-80
2023/01/07 11:18:02;;;;;;;6.05;3.60;;;;;;;;;;5109432;28;20051;-81
2023/01/07 11:20:45;;;;;;;6.68;3.40;;;;;;;;;;5097480;28;20012;-81
2023/01/07 11:23:29;;;;;;;5.82;3.13;;;;;;;;;;5111928;28;20028;-81
2023/01/07 11:26:05;;;;;;;7.85;3.90;;;;;;;;;;5117652;28;20018;-81
2023/01/07 11:28:32;;;;;;;6.18;3.70;;;;;;;;;;5117956;28;20019;-81
2023/01/07 11:30:58;;;;;;;7.65;4.38;;;;;;;;;;5118545;28;20028;-81
2023/01/07 11:33:27;;;;;;;7.35;4.32;;;;;;;;;;5105834;28;20054;-81
2023/01/07 11:35:54;;;;;;;5.43;3.30;;;;;;;;;;5097537;28;20146;-81
2023/01/07 11:38:30;;;;;;;6.22;2.92;;;;;;;;;;5116355;28;20035;-81
2023/01/07 11:40:57;;;;;;;5.45;2.75;;;;;;;;;;5120744;28;20020;-81
2023/01/07 11:43:24;;;;;;;6.28;3.13;;;;;;;;;;5121283;28;20127;-81
2023/01/07 11:45:54;;;;;;;7.18;3.83;;;;;;;;;;5121571;28;20027;-81
2023/01/07 11:48:33;;;;;;;7.20;3.70;;;;;;;;;;5107111;28;20024;-81
2023/01/07 11:51:01;;;;;;;5.93;3.40;;;;;;;;;;5110143;28;20048;-80
2023/01/07 11:53:32;;;;;;;5.97;3.33;;;;;;;;;;5104662;28;20029;-81
2023/01/07 11:56:10;;;;;;;6.37;3.60;;;;;;;;;;5100893;28;20434;-81
2023/01/07 11:58:36;;;;;;;5.55;2.90;;;;;;;;;;5119427;28;20058;-81
2023/01/07 12:01:10;;;;;;;5.57;2.83;;;;;;;;;;5121868;28;20392;-81
2023/01/07 12:03:38;;;;;;;4.90;3.13;;;;;;;;;;5120029;28;20032;-81
2023/01/07 12:06:07;;;;;;;4.97;2.40;;;;;;;;;;5101629;28;20032;-82
2023/01/07 12:08:33;;;;;;;7.68;3.97;;;;;;;;;;5101755;28;20058;-81
2023/01/07 12:11:03;;;;;;;5.47;2.83;;;;;;;;;;5101358;28;20103;-81
2023/01/07 12:13:30;;;;;;;5.05;3.22;;;;;;;;;;5100868;28;20024;-82
2023/01/07 12:15:58;;;;;;;5.70;3.15;;;;;;;;;;5100353;28;20054;-81
2023/01/07 12:18:43;;;;;;;4.70;2.60;;;;;;;;;;5116804;28;20034;-81
2023/01/07 12:21:30;;;;;;;4.95;2.75;;;;;;;;;;5119410;28;20034;-82
2023/01/07 12:24:15;;;;;;;6.57;3.25;;;;;;;;;;5121337;28;20027;-81
2023/01/07 12:26:44;;;;;;;6.97;2.90;;;;;;;;;;5120983;28;20039;-81
2023/01/07 12:29:30;;;;;;;5.28;3.00;;;;;;;;;;5117621;28;20490;-82
2023/01/07 12:32:09;;;;;;;6.50;3.42;;;;;;;;;;5100542;28;20042;-82
2023/01/07 12:34:50;;;;;;;7.22;2.90;;;;;;;;;;5109683;28;20031;-81
2023/01/07 12:37:26;;;;;;;6.20;3.00;;;;;;;;;;5120645;28;20102;-82
2023/01/07 12:39:55;;;;;;;6.15;2.80;;;;;;;;;;5104243;28;20043;-82
2023/01/07 12:42:25;;;;;;;5.43;2.33;;;;;;;;;;5100574;28;20345;-81
2023/01/07 12:44:53;;;;;;;5.75;3.20;;;;;;;;;;5100206;28;20201;-81
2023/01/07 12:47:29;;;;;;;6.03;2.40;;;;;;;;;;5110689;28;20031;-80
2023/01/07 12:49:58;;;;;;;4.95;2.20;;;;;;;;;;5104447;28;20109;-81
2023/01/07 12:52:27;;;;;;;5.82;2.45;;;;;;;;;;5100050;28;20405;-82
2023/01/07 12:55:01;;;;;;;6.53;2.85;;;;;;;;;;5099857;28;20016;-81
2023/01/07 12:57:37;;;;;;;5.75;2.67;;;;;;;;;;5111299;28;20026;-81
2023/01/07 13:00:16;;;;;;;5.10;2.53;;;;;;;;;;5120317;28;20148;-81
2023/01/07 13:02:54;;;;;;;5.28;2.50;;;;;;;;;;5120248;28;20035;-81
2023/01/07 13:05:23;;;;;;;6.57;3.15;;;;;;;;;;5100849;28;20063;-80
2023/01/07 13:08:15;;;;;;;6.03;3.17;;;;;;;;;;5099636;28;20028;-81
2023/01/07 13:10:42;;;;;;;6.37;3.17;;;;;;;;;;5089730;28;20079;-81
2023/01/07 13:13:13;;;;;;;6.57;4.50;;;;;;;;;;5098859;28;20083;-80
2023/01/07 13:15:40;;;;;;;9.60;4.65;;;;;;;;;;5098452;28;20024;-80
2023/01/07 13:18:14;;;;;;;8.25;4.00;;;;;;;;;;5102491;28;20103;-81
2023/01/07 13:20:59;;;;;;;8.82;3.90;;;;;;;;;;5120066;28;20031;-80
2023/01/07 13:23:32;;;;;;;6.97;3.72;;;;;;;;;;5121028;28;20039;-79
2023/01/07 13:26:04;;;;;;;7.03;3.90;;;;;;;;;;5120264;28;20028;-81
2023/01/07 13:28:47;;;;;;;7.57;3.60;;;;;;;;;;5111528;28;20509;-81
2023/01/07 13:31:13;;;;;;;5.95;3.25;;;;;;;;;;5098144;28;20031;-80
2023/01/07 13:33:44;;;;;;;6.82;3.03;;;;;;;;;;5099359;28;20107;-80
2023/01/07 13:36:23;;;;;;;5.63;3.78;;;;;;;;;;5099910;28;20072;-80
2023/01/07 13:39:12;;;;;;;5.43;2.63;;;;;;;;;;5108279;28;20086;-81
2023/01/07 13:41:38;;;;;;;5.57;2.75;;;;;;;;;;5120159;28;20620;-81
2023/01/07 13:44:23;;;;;;;5.43;2.80;;;;;;;;;;5119581;28;20128;-82
2023/01/07 13:46:49;;;;;;;6.72;3.25;;;;;;;;;;5109046;28;20035;-79
2023/01/07 13:49:29;;;;;;;7.93;4.03;;;;;;;;;;5105758;28;20031;-81
2023/01/07 13:51:55;;;;;;;6.00;3.30;;;;;;;;;;5120843;28;20020;-81
2023/01/07 13:54:40;;;;;;;5.95;2.90;;;;;;;;;;5119573;28;20020;-81
2023/01/07 13:57:32;;;;;;;6.90;2.92;;;;;;;;;;5114747;28;20022;-81
2023/01/07 13:59:59;;;;;;;4.82;2.22;;;;;;;;;;5097518;28;20070;-81
2023/01/07 14:02:26;;;;;;;5.18;2.20;;;;;;;;;;5098546;28;20030;-80
2023/01/07 14:04:52;;;;;;;4.43;2.08;;;;;;;;;;5111678;28;20028;-81
2023/01/07 14:07:18;;;;;;;4.78;2.35;;;;;;;;;;5118437;28;20047;-80
2023/01/07 14:09:45;;;;;;;4.38;2.00;;;;;;;;;;5119246;28;20055;-79
2023/01/07 14:12:19;;;;;;;4.30;2.25;;;;;;;;;;5116184;28;20026;-80
2023/01/07 14:15:02;;;;;;;4.32;1.90;;;;;;;;;;5099118;28;20413;-81
2023/01/07 14:17:28;;;;;;;;;;;;;;;;;;5100319;28;20307;-81
2023/01/07 14:20:05;;;;;;;4.55;1.88;;;;;;;;;;5098478;28;19922;-80
2023/01/07 14:22:50;;;;;;;4.30;1.85;;;;;;;;;;5097638;28;20024;-81
2023/01/07 14:25:28;;;;;;;6.00;1.75;;;;;;;;;;5098510;28;20085;-81
2023/01/07 14:28:03;;;;;;;4.25;1.77;;;;;;;;;;5096804;28;20077;-79
2023/01/07 14:30:43;;;;;;;5.60;1.95;;;;;;;;;;5097276;28;20024;-81
2023/01/07 14:33:20;;;;;;;3.92;2.00;;;;;;;;;;5097736;28;20489;-81
2023/01/07 14:36:12;;;;;;;4.07;1.85;;;;;;;;;;5113125;28;20028;-81
2023/01/07 14:38:40;;;;;;;4.78;1.90;;;;;;;;;;5095183;28;20036;-80
2023/01/07 14:41:07;;;;;;;4.70;1.90;;;;;;;;;;5098610;28;20691;-80
2023/01/07 14:43:44;;;;;;;5.13;2.38;;;;;;;;;;5098030;28;20036;-81
2023/01/07 14:46:22;;;;;;;4.57;2.53;;;;;;;;;;5111800;28;20023;-83
2023/01/07 14:49:01;;;;;;;5.10;2.50;;;;;;;;;;5118868;28;20457;-80
2023/01/07 14:51:45;;;;;;;5.13;2.47;;;;;;;;;;5116339;28;20019;-78
2023/01/07 14:54:29;;;;;;;6.85;2.70;;;;;;;;;;5098856;28;20021;-80